Time;durP1;ratioP1;P1;durP2;ratioP2;P2;SDS_P1;SDS_P2;PMS_P1;PMS_P2;Temp;Humidity;BMP_temperature;BMP_pressure;BME280_temperature;BME280_humidity;BME280_pressure;Samples;Min_cycle;Max_cycle;Signal;HPM_P1;HPM_P2
2022/02/03 00:04:52;;;;;;;0.10;0.10;;;5.70;99.90;;;;;;5048843;28;20048;-88
2022/02/03 00:07:26;;;;;;;0.10;0.10;;;5.70;99.90;;;;;;5072754;28;20489;-84
2022/02/03 00:27:14;;;;;;;0.10;0.10;;;6.00;99.90;;;;;;5031814;28;20049;-88
2022/02/03 00:30:02;;;;;;;0.10;0.10;;;6.10;99.90;;;;;;5067445;28;20048;-84
2022/02/03 00:33:07;;;;;;;0.10;0.10;;;6.10;99.90;;;;;;5088775;28;20068;-83
2022/02/03 00:35:52;;;;;;;0.00;0.00;;;6.20;99.90;;;;;;5071974;28;20409;-88
2022/02/03 00:49:12;;;;;;;0.10;0.10;;;6.50;99.90;;;;;;5073841;28;20041;-88
2022/02/03 00:51:51;;;;;;;0.10;0.10;;;6.50;99.90;;;;;;5070861;28;20053;-88
2022/02/03 00:54:21;;;;;;;0.10;0.10;;;6.50;99.90;;;;;;5071630;28;20105;-84
2022/02/03 00:57:01;;;;;;;0.22;0.22;;;6.60;99.90;;;;;;5055406;28;20053;-83
2022/02/03 00:59:43;;;;;;;0.00;0.00;;;6.60;99.90;;;;;;5087906;28;20102;-84
2022/02/03 01:02:17;;;;;;;0.10;0.10;;;6.60;99.90;;;;;;5070861;28;20037;-84
2022/02/03 01:04:43;;;;;;;0.00;0.00;;;6.70;99.90;;;;;;5071386;28;20091;-84
2022/02/03 01:07:17;;;;;;;0.00;0.00;;;6.70;99.90;;;;;;5071377;28;20036;-84
2022/02/03 01:09:58;;;;;;;0.20;0.20;;;6.70;99.90;;;;;;5070757;28;20056;-84
2022/02/03 01:15:10;;;;;;;0.08;0.08;;;6.80;99.90;;;;;;5071736;28;20092;-88
2022/02/03 01:45:20;;;;;;;0.05;0.05;;;7.00;99.90;;;;;;4998374;28;20048;-87
2022/02/03 01:47:55;;;;;;;0.10;0.10;;;7.00;99.90;;;;;;5028446;28;20417;-87
2022/02/03 01:52:51;;;;;;;0.00;0.00;;;7.00;99.90;;;;;;5070183;28;20041;-88
2022/02/03 01:55:21;;;;;;;0.00;0.00;;;7.10;99.90;;;;;;5086614;28;20124;-84
2022/02/03 01:58:12;;;;;;;0.00;0.00;;;7.10;99.90;;;;;;5086173;28;20127;-88
2022/02/03 02:00:45;;;;;;;0.05;0.05;;;7.10;99.90;;;;;;5053523;28;20050;-83
2022/02/03 02:03:12;;;;;;;0.08;0.08;;;7.10;99.90;;;;;;5085717;28;20037;-84
2022/02/03 02:06:11;;;;;;;0.10;0.10;;;7.10;99.90;;;;;;5069467;28;20087;-88
2022/02/03 02:08:43;;;;;;;0.10;0.10;;;7.10;99.90;;;;;;5070394;28;20051;-84
2022/02/03 02:12:19;;;;;;;0.00;0.00;;;7.10;99.90;;;;;;5069942;28;20052;-87
2022/02/03 02:43:22;;;;;;;0.10;0.10;;;7.40;99.90;;;;;;5085451;28;20076;-88
2022/02/03 02:45:54;;;;;;;0.00;0.00;;;7.50;99.90;;;;;;5086888;28;20043;-88
2022/02/03 02:48:46;;;;;;;0.00;0.00;;;7.50;99.90;;;;;;5069295;28;20037;-85
2022/02/03 02:51:21;;;;;;;0.10;0.10;;;7.50;99.90;;;;;;5069543;28;20060;-88
2022/02/03 03:31:02;;;;;;;0.10;0.10;;;7.60;99.90;;;;;;5089187;28;20599;-88
2022/02/03 03:36:11;;;;;;;0.08;0.08;;;7.60;99.90;;;;;;5073181;28;20045;-84
2022/02/03 03:38:41;;;;;;;0.00;0.00;;;7.60;99.90;;;;;;5072235;28;20041;-84
2022/02/03 03:41:15;;;;;;;0.10;0.10;;;7.60;99.90;;;;;;5072437;28;20040;-84
2022/02/03 03:43:48;;;;;;;0.10;0.10;;;7.60;99.90;;;;;;5088703;28;20037;-84
2022/02/03 03:46:25;;;;;;;0.00;0.00;;;7.70;99.90;;;;;;5089270;28;20147;-84
2022/02/03 03:49:08;;;;;;;0.10;0.10;;;7.50;99.90;;;;;;5089580;28;20041;-84
2022/02/03 03:51:55;;;;;;;0.10;0.10;;;7.60;99.90;;;;;;5072331;28;20414;-88
2022/02/03 03:54:55;;;;;;;0.00;0.00;;;7.60;99.90;;;;;;5072332;28;20041;-85
2022/02/03 03:57:45;;;;;;;0.10;0.10;;;7.50;99.90;;;;;;5087903;28;20048;-84
2022/02/03 04:32:52;;;;;;;0.10;0.10;;;7.50;99.90;;;;;;5088266;28;20041;-88
2022/02/03 05:01:05;;;;;;;0.10;0.10;;;7.50;99.90;;;;;;5003847;28;20113;-88
2022/02/03 05:06:09;;;;;;;0.10;0.10;;;7.50;99.90;;;;;;5087246;28;20095;-88
2022/02/03 05:44:50;;;;;;;0.45;0.45;;;7.50;99.90;;;;;;5087683;28;20081;-88
2022/02/03 06:06:25;;;;;;;0.08;0.08;;;7.50;99.90;;;;;;5086618;28;20040;-84
2022/02/03 06:14:12;;;;;;;0.00;0.00;;;7.50;99.90;;;;;;5072544;28;20049;-84
2022/02/03 06:22:24;;;;;;;0.10;0.10;;;7.50;99.90;;;;;;5072626;28;20075;-84
2022/02/03 06:27:41;;;;;;;0.10;0.10;;;7.50;99.90;;;;;;5046437;28;20049;-87
2022/02/03 06:30:10;;;;;;;0.05;0.05;;;7.60;99.90;;;;;;5070492;28;20037;-84
2022/02/03 06:32:39;;;;;;;0.08;0.08;;;7.50;99.90;;;;;;5069691;28;20051;-84
2022/02/03 06:35:07;;;;;;;0.10;0.10;;;7.50;99.90;;;;;;5071647;28;20033;-84
2022/02/03 06:37:35;;;;;;;0.10;0.10;;;7.50;99.90;;;;;;5057028;28;20418;-84
2022/02/03 06:40:04;;;;;;;0.10;0.10;;;7.50;99.90;;;;;;5073321;28;20037;-88
2022/02/03 06:42:31;;;;;;;0.88;0.20;;;7.50;99.90;;;;;;5056927;28;20814;-84
2022/02/03 06:45:11;;;;;;;0.10;0.10;;;7.50;99.90;;;;;;5072651;28;20033;-87
2022/02/03 06:48:02;;;;;;;0.08;0.08;;;7.50;99.90;;;;;;5058940;28;20091;-83
2022/02/03 06:50:35;;;;;;;0.10;0.10;;;7.50;99.90;;;;;;5076932;28;20044;-83
2022/02/03 06:53:13;;;;;;;1.15;0.65;;;7.50;99.90;;;;;;5074604;28;20049;-88
2022/02/03 06:58:24;;;;;;;0.20;0.20;;;7.60;99.90;;;;;;5059154;28;20082;-88
2022/02/03 07:01:07;;;;;;;0.20;0.20;;;7.50;99.90;;;;;;5070334;28;20045;-84
2022/02/03 07:03:38;;;;;;;0.10;0.10;;;7.50;99.90;;;;;;5075961;28;20313;-84
2022/02/03 07:06:05;;;;;;;0.10;0.10;;;7.50;99.90;;;;;;5086797;28;20044;-84
2022/02/03 07:08:34;;;;;;;0.10;0.10;;;7.50;99.90;;;;;;5070110;28;20044;-88
2022/02/03 07:11:02;;;;;;;0.00;0.00;;;7.50;99.90;;;;;;5037388;28;20052;-88
2022/02/03 07:13:28;;;;;;;0.30;0.30;;;7.50;99.90;;;;;;5070171;28;20067;-87
2022/02/03 07:15:58;;;;;;;0.22;0.22;;;7.50;99.90;;;;;;5056716;28;20036;-88
2022/02/03 07:18:24;;;;;;;0.10;0.10;;;7.50;99.90;;;;;;5055530;28;20076;-84
2022/02/03 07:20:51;;;;;;;0.10;0.10;;;7.50;99.90;;;;;;5070114;28;20085;-87
2022/02/03 07:23:18;;;;;;;0.10;0.10;;;7.30;99.90;;;;;;5053491;28;20041;-84
2022/02/03 07:25:45;;;;;;;0.10;0.10;;;7.50;99.90;;;;;;5057133;28;20041;-88
2022/02/03 07:28:12;;;;;;;0.10;0.10;;;7.50;99.90;;;;;;5072685;28;20456;-87
2022/02/03 07:30:39;;;;;;;0.10;0.10;;;7.50;99.90;;;;;;5072605;28;20102;-87
2022/02/03 07:33:07;;;;;;;0.10;0.10;;;7.40;99.90;;;;;;5072632;28;20040;-87
2022/02/03 07:35:35;;;;;;;0.10;0.10;;;7.50;99.90;;;;;;5072154;28;20049;-84
2022/02/03 07:38:05;;;;;;;0.03;0.03;;;7.90;99.90;;;;;;5062091;28;20072;-84
2022/02/03 07:40:33;;;;;;;0.00;0.00;;;7.40;99.90;;;;;;5056933;28;20037;-88
2022/02/03 07:43:02;;;;;;;0.08;0.08;;;7.40;99.90;;;;;;5069854;28;20064;-83
2022/02/03 07:45:30;;;;;;;0.10;0.10;;;7.40;99.90;;;;;;5071957;28;20041;-84
2022/02/03 07:47:57;;;;;;;0.10;0.10;;;7.40;99.90;;;;;;5025937;28;20029;-87
2022/02/03 07:50:24;;;;;;;0.00;0.00;;;7.40;99.90;;;;;;5062148;28;20036;-84
2022/02/03 07:52:51;;;;;;;0.10;0.10;;;7.40;99.90;;;;;;5049612;28;20049;-84
2022/02/03 07:55:20;;;;;;;4.38;0.75;;;7.40;99.90;;;;;;5071362;28;20048;-84
2022/02/03 07:57:49;;;;;;;0.00;0.00;;;7.40;99.90;;;;;;5050963;28;20044;-84
2022/02/03 08:00:17;;;;;;;0.05;0.05;;;7.40;99.90;;;;;;5053721;28;20039;-84
2022/02/03 08:02:45;;;;;;;0.65;0.40;;;7.40;99.90;;;;;;5055581;28;20460;-88
2022/02/03 08:05:13;;;;;;;0.03;0.03;;;7.40;99.90;;;;;;5055653;28;20068;-84
2022/02/03 08:07:47;;;;;;;0.10;0.10;;;7.40;99.90;;;;;;5072015;28;20037;-88
2022/02/03 08:10:28;;;;;;;0.00;0.00;;;7.40;99.90;;;;;;5072513;28;20047;-84
2022/02/03 08:12:55;;;;;;;0.10;0.10;;;7.40;99.90;;;;;;5074357;28;20125;-88
2022/02/03 08:15:25;;;;;;;0.00;0.00;;;7.40;99.90;;;;;;5076522;28;20044;-89
2022/02/03 08:17:54;;;;;;;0.22;0.22;;;7.40;99.90;;;;;;5051461;28;20037;-85
2022/02/03 08:20:21;;;;;;;0.10;0.10;;;7.40;99.90;;;;;;5034784;28;20088;-88
2022/02/03 08:22:56;;;;;;;0.00;0.00;;;7.40;99.90;;;;;;5046087;28;20032;-84
2022/02/03 08:25:27;;;;;;;0.10;0.10;;;7.40;99.90;;;;;;5045368;28;20037;-84
2022/02/03 08:32:51;;;;;;;0.10;0.10;;;7.40;99.90;;;;;;5055268;28;20045;-89
2022/02/03 08:41:03;;;;;;;0.00;0.00;;;7.40;99.90;;;;;;5055345;28;20057;-89
2022/02/03 08:43:12;;;;;;;0.03;0.03;;;7.40;99.90;;;;;;5040393;28;20053;-89
2022/02/03 08:45:41;;;;;;;0.10;0.10;;;7.50;99.90;;;;;;5035222;28;20053;-89
2022/02/03 08:48:08;;;;;;;0.00;0.00;;;7.70;99.90;;;;;;5031801;28;20507;-91
2022/02/03 08:50:36;;;;;;;0.10;0.10;;;7.40;99.90;;;;;;5050546;28;20038;-91
2022/02/03 08:53:12;;;;;;;0.10;0.10;;;7.40;99.90;;;;;;5033317;28;20099;-90
2022/02/03 08:59:02;;;;;;;0.10;0.10;;;7.40;99.90;;;;;;5068140;28;20041;-92
2022/02/03 09:54:04;;;;;;;0.10;0.10;;;7.40;99.90;;;;;;5050242;28;20073;-84
2022/02/03 09:58:37;;;;;;;0.10;0.10;;;7.40;99.90;;;;;;5049867;28;20441;-92
2022/02/03 10:01:10;;;;;;;0.10;0.10;;;7.40;99.90;;;;;;5035883;28;20048;-87
2022/02/03 10:04:03;;;;;;;0.10;0.10;;;7.40;99.90;;;;;;5049631;28;20033;-85
2022/02/03 10:06:25;;;;;;;0.10;0.10;;;7.40;99.90;;;;;;5066104;28;20064;-89
2022/02/03 10:08:54;;;;;;;0.10;0.10;;;7.40;99.90;;;;;;5049509;28;20128;-90
2022/02/03 10:11:23;;;;;;;0.10;0.10;;;7.50;99.90;;;;;;5049211;28;20041;-89
2022/02/03 10:13:55;;;;;;;0.00;0.00;;;7.50;99.90;;;;;;5048734;28;20049;-86
2022/02/03 10:16:33;;;;;;;0.10;0.10;;;7.70;99.90;;;;;;5049963;28;20040;-87
2022/02/03 10:19:19;;;;;;;0.00;0.00;;;7.50;99.90;;;;;;5050393;28;20045;-86
2022/02/03 10:21:50;;;;;;;0.10;0.10;;;7.50;99.90;;;;;;5050324;28;20544;-88
2022/02/03 10:24:18;;;;;;;0.10;0.10;;;7.50;99.90;;;;;;5062955;28;20074;-83
2022/02/03 10:26:50;;;;;;;0.00;0.00;;;7.50;99.90;;;;;;5034577;28;20044;-83
2022/02/03 10:29:23;;;;;;;0.10;0.10;;;7.40;99.90;;;;;;5051237;28;20502;-86
2022/02/03 10:31:50;;;;;;;0.10;0.10;;;7.40;99.90;;;;;;5030179;28;20052;-83
2022/02/03 10:34:25;;;;;;;0.10;0.10;;;7.40;99.90;;;;;;4997692;28;20782;-89
2022/02/03 10:37:24;;;;;;;0.10;0.10;;;7.50;99.90;;;;;;5032439;28;20503;-83
2022/02/03 10:48:19;;;;;;;0.10;0.10;;;7.40;99.90;;;;;;5051857;28;20128;-88
2022/02/03 11:03:28;;;;;;;0.85;0.45;;;7.20;99.90;;;;;;5064716;28;20045;-83
2022/02/03 11:08:54;;;;;;;0.00;0.00;;;7.50;99.90;;;;;;5061798;28;20187;-87
2022/02/03 11:11:31;;;;;;;0.00;0.00;;;7.60;99.90;;;;;;5048868;28;20064;-83
2022/02/03 11:14:00;;;;;;;0.10;0.10;;;7.50;99.90;;;;;;5050453;28;20091;-82
2022/02/03 11:16:28;;;;;;;0.10;0.10;;;7.60;99.90;;;;;;5048301;28;20505;-87
2022/02/03 11:19:02;;;;;;;0.10;0.10;;;7.60;99.90;;;;;;5048920;28;20129;-83
2022/02/03 11:21:29;;;;;;;0.10;0.10;;;7.60;99.90;;;;;;5051414;28;20084;-88
2022/02/03 11:24:04;;;;;;;0.10;0.10;;;7.60;99.90;;;;;;5052514;28;20041;-89
2022/02/03 11:26:45;;;;;;;0.05;0.05;;;7.60;99.90;;;;;;5053097;28;20485;-88
2022/02/03 11:46:30;;;;;;;0.05;0.05;;;7.60;99.90;;;;;;5072205;28;20413;-87
2022/02/03 11:54:51;;;;;;;0.10;0.10;;;7.70;99.90;;;;;;5068076;28;20609;-85
2022/02/03 12:03:13;;;;;;;0.00;0.00;;;7.70;99.90;;;;;;5068369;28;20042;-84
2022/02/03 12:07:13;;;;;;;0.10;0.10;;;7.70;99.90;;;;;;5052395;28;20035;-84
2022/02/03 12:17:00;;;;;;;0.10;0.10;;;7.70;99.90;;;;;;5080342;28;20125;-87
2022/02/03 12:19:40;;;;;;;0.10;0.10;;;7.70;99.90;;;;;;5069339;28;20132;-89
2022/02/03 12:22:15;;;;;;;0.10;0.10;;;7.80;99.90;;;;;;5060547;28;20028;-90
2022/02/03 12:25:08;;;;;;;0.10;0.10;;;7.70;99.90;;;;;;5048512;28;20378;-89
2022/02/03 12:27:53;;;;;;;0.00;0.00;;;7.70;99.90;;;;;;5052809;28;20043;-84
2022/02/03 12:30:32;;;;;;;0.00;0.00;;;7.70;99.90;;;;;;5067472;28;20044;-85
2022/02/03 12:38:34;;;;;;;0.10;0.10;;;7.60;99.90;;;;;;5073047;28;20532;-84
2022/02/03 12:41:10;;;;;;;0.10;0.10;;;7.60;99.90;;;;;;5065129;28;20037;-85
2022/02/03 12:43:40;;;;;;;0.00;0.00;;;7.70;99.90;;;;;;5071467;28;20037;-85
2022/02/03 12:46:08;;;;;;;0.03;0.03;;;7.60;99.90;;;;;;5071165;28;20497;-84
2022/02/03 12:48:36;;;;;;;0.00;0.00;;;7.60;99.90;;;;;;5054916;28;20068;-90
2022/02/03 12:51:04;;;;;;;0.20;0.20;;;7.60;99.90;;;;;;5072535;28;20060;-84
2022/02/03 12:53:33;;;;;;;0.20;0.20;;;7.60;99.90;;;;;;5067352;28;20072;-84
2022/02/03 12:56:05;;;;;;;0.10;0.10;;;7.60;99.90;;;;;;5035021;28;20545;-90
2022/02/03 12:58:48;;;;;;;0.10;0.10;;;7.70;99.90;;;;;;5056737;28;20546;-85
2022/02/03 13:01:17;;;;;;;0.10;0.10;;;7.70;99.90;;;;;;5062448;28;20039;-85
2022/02/03 13:03:51;;;;;;;0.00;0.00;;;7.60;99.90;;;;;;5037311;28;20404;-89
2022/02/03 13:06:22;;;;;;;0.00;0.00;;;7.70;99.90;;;;;;5068595;28;20046;-87
2022/02/03 13:08:59;;;;;;;0.10;0.10;;;7.70;99.90;;;;;;5052099;28;20047;-88
2022/02/03 13:11:54;;;;;;;0.03;0.03;;;7.60;99.90;;;;;;5069809;28;20611;-84
2022/02/03 13:14:32;;;;;;;0.10;0.10;;;7.60;99.90;;;;;;5077643;28;20045;-89
2022/02/03 13:17:17;;;;;;;0.10;0.10;;;7.60;99.90;;;;;;5050544;28;20069;-89
2022/02/03 13:19:54;;;;;;;0.10;0.10;;;7.60;99.90;;;;;;5037043;28;20498;-87
2022/02/03 13:25:34;;;;;;;0.10;0.10;;;7.60;99.90;;;;;;4966202;28;20616;-89
2022/02/03 13:28:12;;;;;;;0.00;0.00;;;7.50;99.90;;;;;;4955488;29;20110;-83
2022/02/03 13:30:49;;;;;;;0.10;0.10;;;7.50;99.90;;;;;;5013310;28;20163;-89
2022/02/03 13:33:23;;;;;;;0.08;0.08;;;7.50;99.90;;;;;;5078793;28;20072;-82
2022/02/03 13:36:03;;;;;;;0.00;0.00;;;7.50;99.90;;;;;;5050928;28;20039;-88
2022/02/03 13:39:17;;;;;;;0.00;0.00;;;7.50;99.90;;;;;;5050137;28;20048;-87
2022/02/03 13:41:27;;;;;;;0.45;0.45;;;7.50;99.90;;;;;;5052703;28;20056;-84
2022/02/03 13:43:55;;;;;;;0.05;0.05;;;7.40;99.90;;;;;;5050681;28;20045;-84
2022/02/03 13:46:29;;;;;;;0.00;0.00;;;7.40;99.90;;;;;;5032742;28;20375;-88
2022/02/03 13:49:00;;;;;;;0.10;0.10;;;7.40;99.90;;;;;;5067133;28;20140;-88
2022/02/03 13:51:29;;;;;;;0.10;0.10;;;7.30;99.90;;;;;;5033666;28;20752;-88
2022/02/03 13:54:08;;;;;;;0.03;0.03;;;7.30;99.90;;;;;;5050730;28;20041;-89
2022/02/03 14:27:16;;;;;;;0.10;0.10;;;7.30;99.90;;;;;;5066375;28;20132;-84
2022/02/03 14:29:46;;;;;;;0.00;0.00;;;7.30;99.90;;;;;;5065375;28;20056;-88
2022/02/03 14:32:16;;;;;;;0.10;0.10;;;7.30;99.90;;;;;;5050033;28;20617;-83
2022/02/03 14:34:43;;;;;;;0.10;0.10;;;7.30;99.90;;;;;;5048953;28;20494;-87
2022/02/03 14:42:22;;;;;;;0.08;0.08;;;7.20;99.90;;;;;;5066264;28;20045;-89
2022/02/03 14:44:50;;;;;;;0.10;0.10;;;7.20;99.90;;;;;;5049242;28;20045;-84
2022/02/03 14:47:18;;;;;;;0.10;0.10;;;7.20;99.90;;;;;;5066203;28;20041;-88
2022/02/03 14:49:45;;;;;;;0.10;0.10;;;7.20;99.90;;;;;;5049161;28;20037;-82
2022/02/03 14:52:21;;;;;;;0.10;0.10;;;7.20;99.90;;;;;;5049501;28;20104;-87
2022/02/03 15:00:22;;;;;;;0.10;0.10;;;7.10;99.90;;;;;;5055459;28;20052;-83
2022/02/03 15:02:49;;;;;;;0.00;0.00;;;7.10;99.90;;;;;;5066027;28;20118;-88
2022/02/03 15:05:24;;;;;;;0.10;0.10;;;7.10;99.90;;;;;;5066028;28;20040;-87
2022/02/03 15:08:46;;;;;;;0.05;0.05;;;7.10;99.90;;;;;;5070665;28;20120;-88
2022/02/03 15:13:44;;;;;;;0.00;0.00;;;7.00;99.90;;;;;;5086278;28;20415;-83
2022/02/03 15:16:29;;;;;;;0.05;0.05;;;7.10;99.90;;;;;;5031881;28;20041;-83
2022/02/03 15:18:59;;;;;;;0.10;0.10;;;7.00;99.90;;;;;;5019247;28;20445;-84
2022/02/03 15:21:26;;;;;;;0.03;0.03;;;7.00;99.90;;;;;;5001187;28;20128;-83
2022/02/03 15:23:52;;;;;;;0.00;0.00;;;7.00;99.90;;;;;;5000018;28;20141;-89
2022/02/03 15:26:21;;;;;;;0.10;0.10;;;7.00;99.90;;;;;;5001544;28;20380;-84
2022/02/03 15:28:48;;;;;;;0.00;0.00;;;7.00;99.90;;;;;;5033250;28;20054;-91
2022/02/03 15:31:15;;;;;;;0.10;0.10;;;7.00;99.90;;;;;;5001331;28;20129;-84
2022/02/03 15:33:51;;;;;;;0.00;0.00;;;6.90;99.90;;;;;;5000599;28;20045;-84
2022/02/03 15:36:18;;;;;;;0.10;0.10;;;6.90;99.90;;;;;;5019376;28;20045;-84
2022/02/03 15:38:48;;;;;;;0.10;0.10;;;6.90;99.90;;;;;;5039945;28;20041;-90
2022/02/03 15:41:26;;;;;;;0.00;0.00;;;6.80;99.90;;;;;;5073574;28;20037;-90
2022/02/03 15:43:55;;;;;;;0.05;0.05;;;6.90;99.90;;;;;;5017480;28;20582;-84
2022/02/03 15:46:23;;;;;;;0.10;0.10;;;6.90;99.90;;;;;;5038024;28;20441;-89
2022/02/03 16:18:23;;;;;;;0.08;0.08;;;7.20;99.90;;;;;;5074447;28;20041;-88
2022/02/03 16:21:18;;;;;;;0.00;0.00;;;6.80;99.90;;;;;;5052246;28;20143;-83
2022/02/03 16:51:09;;;;;;;0.10;0.10;;;6.70;99.90;;;;;;5052937;28;20049;-88
2022/02/03 16:53:36;;;;;;;0.10;0.10;;;6.70;99.90;;;;;;5050568;28;20136;-88
2022/02/03 16:56:08;;;;;;;0.10;0.10;;;6.70;99.90;;;;;;5034476;28;20124;-82
2022/02/03 16:58:36;;;;;;;0.00;0.00;;;6.70;99.90;;;;;;5034852;28;20833;-86
2022/02/03 17:01:03;;;;;;;0.10;0.10;;;6.60;99.90;;;;;;5034485;28;20041;-88
2022/02/03 17:03:30;;;;;;;0.30;0.30;;;6.70;99.90;;;;;;5051431;28;20056;-84
2022/02/03 17:05:57;;;;;;;0.10;0.10;;;6.60;99.90;;;;;;5033630;28;20029;-83
2022/02/03 17:08:24;;;;;;;0.10;0.10;;;6.70;99.90;;;;;;5068320;28;20558;-84
2022/02/03 17:10:51;;;;;;;0.10;0.10;;;6.60;99.90;;;;;;5051139;28;20116;-83
2022/02/03 17:13:18;;;;;;;0.22;0.20;;;6.50;99.90;;;;;;5070359;28;20116;-82
2022/02/03 17:15:45;;;;;;;0.10;0.10;;;6.60;99.90;;;;;;5066490;28;20543;-87
2022/02/03 17:18:13;;;;;;;0.10;0.10;;;6.70;99.90;;;;;;5057570;28;20034;-85
2022/02/03 17:20:41;;;;;;;0.00;0.00;;;6.80;99.90;;;;;;5040041;28;20060;-88
2022/02/03 17:23:12;;;;;;;0.00;0.00;;;6.60;99.90;;;;;;5056095;28;20041;-88
2022/02/03 17:28:37;;;;;;;0.10;0.10;;;6.60;99.90;;;;;;5067201;28;20045;-88
2022/02/03 17:31:02;;;;;;;0.10;0.10;;;6.60;99.90;;;;;;5052738;28;20046;-88
2022/02/03 17:45:25;;;;;;;0.08;0.08;;;6.60;99.90;;;;;;5066122;28;20045;-88
2022/02/03 18:30:59;;;;;;;0.10;0.10;;;6.50;99.90;;;;;;5059142;28;20044;-87
2022/02/03 18:52:27;;;;;;;0.05;0.05;;;6.40;99.90;;;;;;5089708;28;20497;-90
2022/02/03 18:54:44;;;;;;;0.00;0.00;;;6.40;99.90;;;;;;5071487;28;20052;-82
2022/02/03 19:09:37;;;;;;;0.10;0.10;;;6.40;99.90;;;;;;5055065;28;20038;-83
2022/02/03 19:24:29;;;;;;;0.08;0.08;;;6.40;99.90;;;;;;5054009;28;20107;-84
2022/02/03 20:04:46;;;;;;;0.10;0.10;;;6.60;99.90;;;;;;5074272;28;20512;-83
2022/02/03 20:12:21;;;;;;;0.00;0.00;;;6.60;99.90;;;;;;5072763;28;20096;-89
2022/02/03 20:14:49;;;;;;;0.10;0.10;;;6.60;99.90;;;;;;5055987;28;20072;-83
2022/02/03 20:17:19;;;;;;;0.10;0.10;;;6.50;99.90;;;;;;5058638;28;20406;-89
2022/02/03 20:19:47;;;;;;;0.00;0.00;;;6.60;99.90;;;;;;5068083;28;20045;-89
2022/02/03 20:22:14;;;;;;;0.08;0.08;;;6.60;99.90;;;;;;5051956;28;20510;-89
2022/02/03 20:24:41;;;;;;;0.00;0.00;;;6.60;99.90;;;;;;5052230;28;20069;-89
2022/02/03 20:27:08;;;;;;;0.00;0.00;;;6.80;99.90;;;;;;5034865;28;20041;-89
2022/02/03 20:29:35;;;;;;;0.10;0.10;;;6.50;99.90;;;;;;5043778;28;20045;-84
2022/02/03 20:32:02;;;;;;;0.10;0.10;;;6.60;99.90;;;;;;5035319;28;20037;-88
2022/02/03 20:34:29;;;;;;;0.00;0.00;;;6.50;99.90;;;;;;5051962;28;20095;-84
2022/02/03 20:36:56;;;;;;;0.10;0.10;;;6.50;99.90;;;;;;5050878;28;20041;-89
2022/02/03 20:39:22;;;;;;;0.20;0.20;;;6.50;99.90;;;;;;5035986;28;20041;-88
2022/02/03 20:41:49;;;;;;;0.00;0.00;;;6.60;99.90;;;;;;5051342;28;20073;-84
2022/02/03 20:44:16;;;;;;;0.05;0.05;;;6.60;99.90;;;;;;5049691;28;20091;-84
2022/02/03 20:46:43;;;;;;;0.10;0.10;;;6.60;99.90;;;;;;5049112;28;20091;-84
2022/02/03 20:49:13;;;;;;;0.10;0.10;;;6.60;99.90;;;;;;5033879;28;20482;-85
2022/02/03 20:51:40;;;;;;;0.00;0.00;;;6.60;99.90;;;;;;5043893;28;20064;-83
2022/02/03 20:54:07;;;;;;;0.10;0.10;;;6.60;99.90;;;;;;5029845;28;20050;-83
2022/02/03 20:56:33;;;;;;;0.10;0.10;;;6.50;99.90;;;;;;5034110;28;20056;-83
2022/02/03 20:59:04;;;;;;;0.10;0.10;;;6.60;99.90;;;;;;5067163;28;20042;-87
2022/02/03 21:01:34;;;;;;;0.10;0.10;;;6.60;99.90;;;;;;5057495;28;20090;-82
2022/02/03 21:04:10;;;;;;;0.10;0.10;;;6.60;99.90;;;;;;5061345;28;20037;-83
2022/02/03 21:06:37;;;;;;;0.10;0.10;;;7.10;99.90;;;;;;5035573;28;20536;-83
2022/02/03 21:09:06;;;;;;;0.10;0.10;;;6.60;99.90;;;;;;5033658;28;20045;-91
2022/02/03 21:11:33;;;;;;;0.10;0.10;;;6.60;99.90;;;;;;5050474;28;20049;-82
2022/02/03 21:14:02;;;;;;;0.10;0.10;;;6.60;99.90;;;;;;5033886;28;20052;-82
2022/02/03 21:16:29;;;;;;;0.90;0.32;;;6.60;99.90;;;;;;5049890;28;20045;-82
2022/02/03 21:18:56;;;;;;;0.10;0.10;;;6.60;99.90;;;;;;5066724;28;20934;-87
2022/02/03 21:21:23;;;;;;;0.10;0.10;;;6.70;99.90;;;;;;5052498;28;20116;-87
2022/02/03 21:23:50;;;;;;;0.00;0.00;;;6.90;99.90;;;;;;5033727;28;20095;-82
2022/02/03 21:26:27;;;;;;;0.10;0.10;;;6.60;99.90;;;;;;5033458;28;20048;-82
2022/02/03 21:28:53;;;;;;;0.10;0.10;;;6.60;99.90;;;;;;5036027;28;20490;-81
2022/02/03 21:31:20;;;;;;;0.10;0.10;;;6.60;99.90;;;;;;5040704;28;20033;-89
2022/02/03 21:33:51;;;;;;;0.10;0.10;;;6.60;99.90;;;;;;5034695;28;20045;-89
2022/02/03 21:36:20;;;;;;;0.10;0.10;;;7.10;99.90;;;;;;5032540;28;20521;-87
2022/02/03 21:38:49;;;;;;;0.00;0.00;;;6.60;99.90;;;;;;5060162;28;20083;-88
2022/02/03 21:41:20;;;;;;;0.00;0.00;;;6.70;99.90;;;;;;5059235;28;20033;-83
2022/02/03 21:43:50;;;;;;;0.00;0.00;;;6.60;99.90;;;;;;5061477;28;20043;-88
2022/02/03 21:46:17;;;;;;;0.10;0.10;;;6.70;99.90;;;;;;5062272;28;20391;-84
2022/02/03 21:48:49;;;;;;;0.10;0.10;;;6.60;99.90;;;;;;5061240;28;20049;-83
2022/02/03 21:51:21;;;;;;;0.00;0.00;;;6.70;99.90;;;;;;5070711;28;20604;-84
2022/02/03 21:53:49;;;;;;;0.10;0.10;;;6.70;99.90;;;;;;5070361;28;20156;-84
2022/02/03 21:56:17;;;;;;;0.05;0.05;;;6.60;99.90;;;;;;5053763;28;20052;-84
2022/02/03 21:58:43;;;;;;;0.05;0.05;;;6.70;99.90;;;;;;5054485;28;20051;-84
2022/02/03 22:01:10;;;;;;;0.10;0.10;;;6.70;99.90;;;;;;5070439;28;20064;-90
2022/02/03 22:03:37;;;;;;;0.10;0.10;;;6.60;99.90;;;;;;5069923;28;20029;-84
2022/02/03 22:06:04;;;;;;;0.10;0.10;;;6.60;99.90;;;;;;5053545;28;20045;-84
2022/02/03 22:08:31;;;;;;;0.00;0.00;;;6.60;99.90;;;;;;5069828;28;20043;-84
2022/02/03 22:10:59;;;;;;;0.10;0.10;;;6.60;99.90;;;;;;5053523;28;20033;-84
2022/02/03 22:13:34;;;;;;;0.10;0.10;;;6.80;99.90;;;;;;5036278;28;20042;-85
2022/02/03 22:16:06;;;;;;;0.00;0.00;;;6.70;99.90;;;;;;5034495;28;20128;-84
2022/02/03 22:18:33;;;;;;;0.20;0.20;;;6.70;99.90;;;;;;5049618;28;20045;-84
2022/02/03 22:21:07;;;;;;;0.00;0.00;;;6.70;99.90;;;;;;5033026;28;20037;-86
2022/02/03 22:42:50;;;;;;;0.00;0.00;;;6.70;99.90;;;;;;5086545;28;19920;-83
2022/02/03 22:50:16;;;;;;;;;;;6.70;99.90;;;;;;5059175;28;20041;-84
2022/02/03 22:52:44;;;;;;;0.10;0.10;;;6.70;99.90;;;;;;5037438;28;20382;-83
2022/02/03 22:55:12;;;;;;;0.10;0.10;;;6.40;99.90;;;;;;5033151;28;20923;-89
2022/02/03 22:57:43;;;;;;;0.10;0.10;;;6.70;99.90;;;;;;5049763;28;20046;-89
2022/02/03 23:02:39;;;;;;;0.10;0.10;;;6.70;99.90;;;;;;5066103;28;20080;-84
2022/02/03 23:05:07;;;;;;;0.10;0.10;;;6.70;99.90;;;;;;5049151;28;20044;-88
2022/02/03 23:07:50;;;;;;;0.10;0.10;;;6.70;99.90;;;;;;5034431;28;20124;-89
2022/02/03 23:15:29;;;;;;;0.00;0.00;;;6.70;99.90;;;;;;5049642;28;20049;-83
2022/02/03 23:18:20;;;;;;;0.10;0.10;;;6.70;99.90;;;;;;5038711;28;20077;-83
2022/02/03 23:21:12;;;;;;;0.00;0.00;;;6.70;99.90;;;;;;5053318;28;20041;-83
2022/02/03 23:23:34;;;;;;;0.00;0.00;;;6.70;99.90;;;;;;5070080;28;20052;-89
2022/02/03 23:26:00;;;;;;;0.03;0.03;;;6.70;99.90;;;;;;5053937;28;20390;-89
2022/02/03 23:28:30;;;;;;;0.10;0.10;;;6.70;99.90;;;;;;5053077;28;20096;-89
2022/02/03 23:30:58;;;;;;;0.10;0.10;;;6.70;99.90;;;;;;5053299;28;20075;-89
2022/02/03 23:33:26;;;;;;;0.10;0.10;;;6.60;99.90;;;;;;5053105;28;20042;-89
2022/02/03 23:35:52;;;;;;;3.72;0.40;;;6.70;99.90;;;;;;5069543;28;20069;-83
2022/02/03 23:46:39;;;;;;;0.00;0.00;;;6.60;99.90;;;;;;5054961;28;20049;-89
